sensor_id;sensor_type;location;lat;lon;timestamp;temperature;humidity
74537;SHT31;63013;51.104;-115.370;2023-02-15T00:00:07;16.34;32.87
74537;SHT31;63013;51.104;-115.370;2023-02-15T00:02:38;16.32;32.90
74537;SHT31;63013;51.104;-115.370;2023-02-15T00:05:06;16.31;32.88
74537;SHT31;63013;51.104;-115.370;2023-02-15T00:07:34;16.30;32.90
74537;SHT31;63013;51.104;-115.370;2023-02-15T00:10:01;16.28;32.90
74537;SHT31;63013;51.104;-115.370;2023-02-15T00:12:28;16.26;32.93
74537;SHT31;63013;51.104;-115.370;2023-02-15T00:14:55;16.25;32.93
74537;SHT31;63013;51.104;-115.370;2023-02-15T00:17:22;16.23;32.98
74537;SHT31;63013;51.104;-115.370;2023-02-15T00:19:52;16.22;32.97
74537;SHT31;63013;51.104;-115.370;2023-02-15T00:22:20;16.20;32.98
74537;SHT31;63013;51.104;-115.370;2023-02-15T00:24:47;16.19;33.00
74537;SHT31;63013;51.104;-115.370;2023-02-15T00:27:15;16.18;33.02
74537;SHT31;63013;51.104;-115.370;2023-02-15T00:29:42;16.16;33.00
74537;SHT31;63013;51.104;-115.370;2023-02-15T00:32:10;16.14;33.00
74537;SHT31;63013;51.104;-115.370;2023-02-15T00:34:37;16.13;33.02
74537;SHT31;63013;51.104;-115.370;2023-02-15T00:37:04;16.11;33.02
74537;SHT31;63013;51.104;-115.370;2023-02-15T00:39:31;16.08;33.05
74537;SHT31;63013;51.104;-115.370;2023-02-15T00:41:58;16.06;33.08
74537;SHT31;63013;51.104;-115.370;2023-02-15T00:44:25;16.04;33.08
74537;SHT31;63013;51.104;-115.370;2023-02-15T00:46:53;16.03;33.09
74537;SHT31;63013;51.104;-115.370;2023-02-15T00:49:20;16.01;33.10
74537;SHT31;63013;51.104;-115.370;2023-02-15T00:51:47;15.99;33.11
74537;SHT31;63013;51.104;-115.370;2023-02-15T00:54:14;15.98;33.10
74537;SHT31;63013;51.104;-115.370;2023-02-15T00:56:41;15.97;33.10
74537;SHT31;63013;51.104;-115.370;2023-02-15T00:59:09;15.94;33.13
74537;SHT31;63013;51.104;-115.370;2023-02-15T01:01:36;15.93;33.16
74537;SHT31;63013;51.104;-115.370;2023-02-15T01:04:03;15.91;33.19
74537;SHT31;63013;51.104;-115.370;2023-02-15T01:06:30;15.89;33.20
74537;SHT31;63013;51.104;-115.370;2023-02-15T01:08:57;15.88;33.21
74537;SHT31;63013;51.104;-115.370;2023-02-15T01:11:24;15.86;33.20
74537;SHT31;63013;51.104;-115.370;2023-02-15T01:13:52;15.84;33.20
74537;SHT31;63013;51.104;-115.370;2023-02-15T01:16:23;15.82;33.22
74537;SHT31;63013;51.104;-115.370;2023-02-15T01:18:53;15.81;33.24
74537;SHT31;63013;51.104;-115.370;2023-02-15T01:21:21;15.79;33.26
74537;SHT31;63013;51.104;-115.370;2023-02-15T01:23:50;15.77;33.29
74537;SHT31;63013;51.104;-115.370;2023-02-15T01:26:18;15.77;33.30
74537;SHT31;63013;51.104;-115.370;2023-02-15T01:28:45;15.75;33.30
74537;SHT31;63013;51.104;-115.370;2023-02-15T01:31:13;15.73;33.30
74537;SHT31;63013;51.104;-115.370;2023-02-15T01:33:42;15.71;33.30
74537;SHT31;63013;51.104;-115.370;2023-02-15T01:36:09;15.71;33.31
74537;SHT31;63013;51.104;-115.370;2023-02-15T01:38:37;15.68;33.30
74537;SHT31;63013;51.104;-115.370;2023-02-15T01:41:05;15.67;33.31
74537;SHT31;63013;51.104;-115.370;2023-02-15T01:43:53;15.65;33.36
74537;SHT31;63013;51.104;-115.370;2023-02-15T01:46:43;15.65;33.34
74537;SHT31;63013;51.104;-115.370;2023-02-15T01:49:19;15.65;33.38
74537;SHT31;63013;51.104;-115.370;2023-02-15T01:51:52;15.66;33.39
74537;SHT31;63013;51.104;-115.370;2023-02-15T01:54:27;15.68;33.38
74537;SHT31;63013;51.104;-115.370;2023-02-15T01:57:00;15.69;33.38
74537;SHT31;63013;51.104;-115.370;2023-02-15T01:59:33;15.71;33.40
74537;SHT31;63013;51.104;-115.370;2023-02-15T02:02:04;15.73;33.40
74537;SHT31;63013;51.104;-115.370;2023-02-15T02:04:40;15.77;33.42
74537;SHT31;63013;51.104;-115.370;2023-02-15T02:07:13;15.82;33.45
74537;SHT31;63013;51.104;-115.370;2023-02-15T02:09:45;15.87;33.41
74537;SHT31;63013;51.104;-115.370;2023-02-15T02:12:14;15.90;33.40
74537;SHT31;63013;51.104;-115.370;2023-02-15T02:14:44;15.92;33.40
74537;SHT31;63013;51.104;-115.370;2023-02-15T02:20:43;15.93;33.47
74537;SHT31;63013;51.104;-115.370;2023-02-15T02:23:38;15.92;33.49
74537;SHT31;63013;51.104;-115.370;2023-02-15T02:33:14;15.89;33.56
74537;SHT31;63013;51.104;-115.370;2023-02-15T02:36:24;15.86;33.56
74537;SHT31;63013;51.104;-115.370;2023-02-15T02:39:30;15.85;33.60
74537;SHT31;63013;51.104;-115.370;2023-02-15T02:42:10;15.85;33.59
74537;SHT31;63013;51.104;-115.370;2023-02-15T02:45:01;15.84;33.60
74537;SHT31;63013;51.104;-115.370;2023-02-15T02:47:33;15.82;33.62
74537;SHT31;63013;51.104;-115.370;2023-02-15T02:50:44;15.82;33.61
74537;SHT31;63013;51.104;-115.370;2023-02-15T02:53:12;15.81;33.60
74537;SHT31;63013;51.104;-115.370;2023-02-15T02:58:54;15.78;33.64
74537;SHT31;63013;51.104;-115.370;2023-02-15T03:01:44;15.75;33.65
74537;SHT31;63013;51.104;-115.370;2023-02-15T03:04:32;15.74;33.66
74537;SHT31;63013;51.104;-115.370;2023-02-15T03:07:08;15.73;33.68
74537;SHT31;63013;51.104;-115.370;2023-02-15T03:09:49;15.71;33.65
74537;SHT31;63013;51.104;-115.370;2023-02-15T03:12:24;15.70;33.68
74537;SHT31;63013;51.104;-115.370;2023-02-15T03:15:12;15.68;33.68
74537;SHT31;63013;51.104;-115.370;2023-02-15T03:17:51;15.68;33.70
74537;SHT31;63013;51.104;-115.370;2023-02-15T03:20:34;15.65;33.70
74537;SHT31;63013;51.104;-115.370;2023-02-15T03:23:12;15.65;33.70
74537;SHT31;63013;51.104;-115.370;2023-02-15T03:25:52;15.62;33.70
74537;SHT31;63013;51.104;-115.370;2023-02-15T03:28:38;15.61;33.70
74537;SHT31;63013;51.104;-115.370;2023-02-15T03:31:11;15.60;33.70
74537;SHT31;63013;51.104;-115.370;2023-02-15T03:33:43;15.58;33.71
74537;SHT31;63013;51.104;-115.370;2023-02-15T03:36:26;15.57;33.71
74537;SHT31;63013;51.104;-115.370;2023-02-15T03:39:38;15.56;33.70
74537;SHT31;63013;51.104;-115.370;2023-02-15T03:42:13;15.55;33.71
74537;SHT31;63013;51.104;-115.370;2023-02-15T03:45:08;15.53;33.70
74537;SHT31;63013;51.104;-115.370;2023-02-15T03:47:42;15.53;33.70
74537;SHT31;63013;51.104;-115.370;2023-02-15T03:50:18;15.53;33.72
74537;SHT31;63013;51.104;-115.370;2023-02-15T03:53:12;15.56;33.73
74537;SHT31;63013;51.104;-115.370;2023-02-15T03:55:49;15.58;33.77
74537;SHT31;63013;51.104;-115.370;2023-02-15T03:58:20;15.60;33.78
74537;SHT31;63013;51.104;-115.370;2023-02-15T04:01:10;15.63;33.78
74537;SHT31;63013;51.104;-115.370;2023-02-15T04:04:21;15.68;33.80
74537;SHT31;63013;51.104;-115.370;2023-02-15T04:07:07;15.72;33.78
74537;SHT31;63013;51.104;-115.370;2023-02-15T04:09:35;15.73;33.78
74537;SHT31;63013;51.104;-115.370;2023-02-15T04:12:21;15.75;33.80
74537;SHT31;63013;51.104;-115.370;2023-02-15T04:14:48;15.74;33.80
74537;SHT31;63013;51.104;-115.370;2023-02-15T04:17:35;15.74;33.80
74537;SHT31;63013;51.104;-115.370;2023-02-15T04:20:03;15.74;33.83
74537;SHT31;63013;51.104;-115.370;2023-02-15T04:22:49;15.73;33.84
74537;SHT31;63013;51.104;-115.370;2023-02-15T04:25:35;15.72;33.85
74537;SHT31;63013;51.104;-115.370;2023-02-15T04:28:02;15.70;33.89
74537;SHT31;63013;51.104;-115.370;2023-02-15T04:30:29;15.69;33.89
74537;SHT31;63013;51.104;-115.370;2023-02-15T04:32:57;15.69;33.90
74537;SHT31;63013;51.104;-115.370;2023-02-15T04:35:24;15.68;33.90
74537;SHT31;63013;51.104;-115.370;2023-02-15T04:37:51;15.67;33.92
74537;SHT31;63013;51.104;-115.370;2023-02-15T04:40:18;15.66;33.98
74537;SHT31;63013;51.104;-115.370;2023-02-15T04:42:48;15.65;33.99
74537;SHT31;63013;51.104;-115.370;2023-02-15T04:45:16;15.64;33.99
74537;SHT31;63013;51.104;-115.370;2023-02-15T04:47:43;15.63;34.00
74537;SHT31;63013;51.104;-115.370;2023-02-15T04:50:11;15.62;34.00
74537;SHT31;63013;51.104;-115.370;2023-02-15T04:52:38;15.60;34.00
74537;SHT31;63013;51.104;-115.370;2023-02-15T04:55:05;15.59;34.01
74537;SHT31;63013;51.104;-115.370;2023-02-15T04:57:33;15.59;34.03
74537;SHT31;63013;51.104;-115.370;2023-02-15T05:00:00;15.56;34.04
74537;SHT31;63013;51.104;-115.370;2023-02-15T05:02:27;15.56;34.08
74537;SHT31;63013;51.104;-115.370;2023-02-15T05:04:54;15.54;34.06
74537;SHT31;63013;51.104;-115.370;2023-02-15T05:07:21;15.54;34.08
74537;SHT31;63013;51.104;-115.370;2023-02-15T05:09:48;15.53;34.10
74537;SHT31;63013;51.104;-115.370;2023-02-15T05:12:15;15.52;34.08
74537;SHT31;63013;51.104;-115.370;2023-02-15T05:14:42;15.50;34.10
74537;SHT31;63013;51.104;-115.370;2023-02-15T05:17:10;15.48;34.10
74537;SHT31;63013;51.104;-115.370;2023-02-15T05:19:37;15.47;34.09
74537;SHT31;63013;51.104;-115.370;2023-02-15T05:22:04;15.46;34.08
74537;SHT31;63013;51.104;-115.370;2023-02-15T05:24:31;15.45;34.06
74537;SHT31;63013;51.104;-115.370;2023-02-15T05:27:16;15.43;34.08
74537;SHT31;63013;51.104;-115.370;2023-02-15T05:30:02;15.43;34.08
74537;SHT31;63013;51.104;-115.370;2023-02-15T05:32:30;15.44;34.08
74537;SHT31;63013;51.104;-115.370;2023-02-15T05:34:57;15.45;34.09
74537;SHT31;63013;51.104;-115.370;2023-02-15T05:37:24;15.47;34.06
74537;SHT31;63013;51.104;-115.370;2023-02-15T05:39:51;15.49;34.07
74537;SHT31;63013;51.104;-115.370;2023-02-15T05:42:18;15.52;34.09
74537;SHT31;63013;51.104;-115.370;2023-02-15T05:44:45;15.55;34.09
74537;SHT31;63013;51.104;-115.370;2023-02-15T05:47:12;15.60;34.08
74537;SHT31;63013;51.104;-115.370;2023-02-15T05:49:39;15.64;34.08
74537;SHT31;63013;51.104;-115.370;2023-02-15T05:52:06;15.66;34.09
74537;SHT31;63013;51.104;-115.370;2023-02-15T05:54:37;15.68;34.10
74537;SHT31;63013;51.104;-115.370;2023-02-15T05:57:04;15.68;34.09
74537;SHT31;63013;51.104;-115.370;2023-02-15T05:59:31;15.69;34.10
74537;SHT31;63013;51.104;-115.370;2023-02-15T06:01:59;15.68;34.09
74537;SHT31;63013;51.104;-115.370;2023-02-15T06:04:26;15.68;34.09
74537;SHT31;63013;51.104;-115.370;2023-02-15T06:06:53;15.67;34.10
74537;SHT31;63013;51.104;-115.370;2023-02-15T06:09:20;15.67;34.11
74537;SHT31;63013;51.104;-115.370;2023-02-15T06:11:47;15.66;34.10
74537;SHT31;63013;51.104;-115.370;2023-02-15T06:14:14;15.66;34.12
74537;SHT31;63013;51.104;-115.370;2023-02-15T06:16:41;15.65;34.14
74537;SHT31;63013;51.104;-115.370;2023-02-15T06:19:09;15.64;34.15
74537;SHT31;63013;51.104;-115.370;2023-02-15T06:21:36;15.62;34.14
74537;SHT31;63013;51.104;-115.370;2023-02-15T06:24:03;15.62;34.19
74537;SHT31;63013;51.104;-115.370;2023-02-15T06:26:30;15.61;34.19
74537;SHT31;63013;51.104;-115.370;2023-02-15T06:28:58;15.59;34.20
74537;SHT31;63013;51.104;-115.370;2023-02-15T06:31:25;15.60;34.19
74537;SHT31;63013;51.104;-115.370;2023-02-15T06:33:52;15.57;34.21
74537;SHT31;63013;51.104;-115.370;2023-02-15T06:36:27;15.56;34.20
74537;SHT31;63013;51.104;-115.370;2023-02-15T06:38:55;15.55;34.20
74537;SHT31;63013;51.104;-115.370;2023-02-15T06:41:22;15.53;34.20
74537;SHT31;63013;51.104;-115.370;2023-02-15T06:43:49;15.52;34.20
74537;SHT31;63013;51.104;-115.370;2023-02-15T06:46:17;15.50;34.20
74537;SHT31;63013;51.104;-115.370;2023-02-15T06:48:44;15.49;34.20
74537;SHT31;63013;51.104;-115.370;2023-02-15T06:51:11;15.48;34.20
74537;SHT31;63013;51.104;-115.370;2023-02-15T06:53:38;15.47;34.21
74537;SHT31;63013;51.104;-115.370;2023-02-15T06:56:10;15.45;34.20
74537;SHT31;63013;51.104;-115.370;2023-02-15T06:58:38;15.44;34.20
74537;SHT31;63013;51.104;-115.370;2023-02-15T07:01:07;15.42;34.21
74537;SHT31;63013;51.104;-115.370;2023-02-15T07:03:35;15.40;34.20
74537;SHT31;63013;51.104;-115.370;2023-02-15T07:06:03;15.41;34.20
74537;SHT31;63013;51.104;-115.370;2023-02-15T07:08:34;15.40;34.20
74537;SHT31;63013;51.104;-115.370;2023-02-15T07:11:03;15.41;34.20
74537;SHT31;63013;51.104;-115.370;2023-02-15T07:13:50;15.44;34.20
74537;SHT31;63013;51.104;-115.370;2023-02-15T07:16:20;15.45;34.20
74537;SHT31;63013;51.104;-115.370;2023-02-15T07:18:47;15.47;34.20
74537;SHT31;63013;51.104;-115.370;2023-02-15T07:21:14;15.50;34.20
74537;SHT31;63013;51.104;-115.370;2023-02-15T07:23:41;15.53;34.23
74537;SHT31;63013;51.104;-115.370;2023-02-15T07:26:08;15.57;34.21
74537;SHT31;63013;51.104;-115.370;2023-02-15T07:28:36;15.61;34.22
74537;SHT31;63013;51.104;-115.370;2023-02-15T07:31:03;15.62;34.25
74537;SHT31;63013;51.104;-115.370;2023-02-15T07:33:31;15.63;34.29
74537;SHT31;63013;51.104;-115.370;2023-02-15T07:36:00;15.63;34.29
74537;SHT31;63013;51.104;-115.370;2023-02-15T07:38:33;15.65;34.30
74537;SHT31;63013;51.104;-115.370;2023-02-15T07:41:06;15.65;34.30
74537;SHT31;63013;51.104;-115.370;2023-02-15T07:43:37;15.64;34.28
74537;SHT31;63013;51.104;-115.370;2023-02-15T07:46:12;15.64;34.30
74537;SHT31;63013;51.104;-115.370;2023-02-15T07:48:42;15.63;34.28
74537;SHT31;63013;51.104;-115.370;2023-02-15T07:51:11;15.61;34.29
74537;SHT31;63013;51.104;-115.370;2023-02-15T07:53:39;15.60;34.29
74537;SHT31;63013;51.104;-115.370;2023-02-15T07:56:09;15.59;34.30
74537;SHT31;63013;51.104;-115.370;2023-02-15T07:58:39;15.58;34.30
74537;SHT31;63013;51.104;-115.370;2023-02-15T08:01:19;15.59;34.30
74537;SHT31;63013;51.104;-115.370;2023-02-15T08:03:49;15.56;34.30
74537;SHT31;63013;51.104;-115.370;2023-02-15T08:06:17;15.56;34.30
74537;SHT31;63013;51.104;-115.370;2023-02-15T08:08:45;15.54;34.30
74537;SHT31;63013;51.104;-115.370;2023-02-15T08:11:19;15.52;34.30
74537;SHT31;63013;51.104;-115.370;2023-02-15T08:16:38;15.49;34.31
74537;SHT31;63013;51.104;-115.370;2023-02-15T08:19:29;15.48;34.34
74537;SHT31;63013;51.104;-115.370;2023-02-15T08:22:00;15.47;34.31
74537;SHT31;63013;51.104;-115.370;2023-02-15T08:24:33;15.45;34.34
74537;SHT31;63013;51.104;-115.370;2023-02-15T08:27:03;15.45;34.32
74537;SHT31;63013;51.104;-115.370;2023-02-15T08:29:32;15.44;34.31
74537;SHT31;63013;51.104;-115.370;2023-02-15T08:32:04;15.42;34.31
74537;SHT31;63013;51.104;-115.370;2023-02-15T08:34:35;15.42;34.30
74537;SHT31;63013;51.104;-115.370;2023-02-15T08:37:05;15.40;34.30
74537;SHT31;63013;51.104;-115.370;2023-02-15T08:39:33;15.40;34.30
74537;SHT31;63013;51.104;-115.370;2023-02-15T08:42:00;15.40;34.31
74537;SHT31;63013;51.104;-115.370;2023-02-15T08:44:27;15.41;34.30
74537;SHT31;63013;51.104;-115.370;2023-02-15T08:46:55;15.41;34.32
74537;SHT31;63013;51.104;-115.370;2023-02-15T08:49:28;15.44;34.33
74537;SHT31;63013;51.104;-115.370;2023-02-15T08:51:55;15.45;34.31
74537;SHT31;63013;51.104;-115.370;2023-02-15T08:54:22;15.49;34.31
74537;SHT31;63013;51.104;-115.370;2023-02-15T08:56:49;15.51;34.31
74537;SHT31;63013;51.104;-115.370;2023-02-15T08:59:17;15.55;34.31
74537;SHT31;63013;51.104;-115.370;2023-02-15T09:01:47;15.57;34.30
74537;SHT31;63013;51.104;-115.370;2023-02-15T09:04:16;15.59;34.30
74537;SHT31;63013;51.104;-115.370;2023-02-15T09:06:45;15.59;34.35
74537;SHT31;63013;51.104;-115.370;2023-02-15T09:09:14;15.60;34.33
74537;SHT31;63013;51.104;-115.370;2023-02-15T09:11:43;15.59;34.36
74537;SHT31;63013;51.104;-115.370;2023-02-15T09:14:14;15.58;34.38
74537;SHT31;63013;51.104;-115.370;2023-02-15T09:16:46;15.57;34.38
74537;SHT31;63013;51.104;-115.370;2023-02-15T09:19:17;15.56;34.40
74537;SHT31;63013;51.104;-115.370;2023-02-15T09:21:47;15.55;34.40
74537;SHT31;63013;51.104;-115.370;2023-02-15T09:24:15;15.54;34.40
74537;SHT31;63013;51.104;-115.370;2023-02-15T09:26:44;15.52;34.40
74537;SHT31;63013;51.104;-115.370;2023-02-15T09:29:13;15.52;34.40
74537;SHT31;63013;51.104;-115.370;2023-02-15T09:31:43;15.51;34.40
74537;SHT31;63013;51.104;-115.370;2023-02-15T09:34:14;15.49;34.40
74537;SHT31;63013;51.104;-115.370;2023-02-15T09:36:44;15.49;34.40
74537;SHT31;63013;51.104;-115.370;2023-02-15T09:39:16;15.48;34.40
74537;SHT31;63013;51.104;-115.370;2023-02-15T09:42:04;15.47;34.43
74537;SHT31;63013;51.104;-115.370;2023-02-15T09:54:33;15.40;34.42
74537;SHT31;63013;51.104;-115.370;2023-02-15T09:57:32;15.38;34.42
74537;SHT31;63013;51.104;-115.370;2023-02-15T10:10:12;15.32;34.43
74537;SHT31;63013;51.104;-115.370;2023-02-15T10:16:12;15.33;34.47
74537;SHT31;63013;51.104;-115.370;2023-02-15T10:25:01;15.40;34.44
74537;SHT31;63013;51.104;-115.370;2023-02-15T10:28:06;15.42;34.46
74537;SHT31;63013;51.104;-115.370;2023-02-15T10:30:49;15.46;34.44
74537;SHT31;63013;51.104;-115.370;2023-02-15T10:36:11;15.53;34.40
74537;SHT31;63013;51.104;-115.370;2023-02-15T10:47:40;15.57;34.46
74537;SHT31;63013;51.104;-115.370;2023-02-15T11:08:16;15.50;34.49
74537;SHT31;63013;51.104;-115.370;2023-02-15T11:13:34;15.48;34.49
74537;SHT31;63013;51.104;-115.370;2023-02-15T11:16:14;15.48;34.49
74537;SHT31;63013;51.104;-115.370;2023-02-15T11:18:59;15.47;34.48
74537;SHT31;63013;51.104;-115.370;2023-02-15T11:22:05;15.45;34.48
74537;SHT31;63013;51.104;-115.370;2023-02-15T11:24:43;15.45;34.50
74537;SHT31;63013;51.104;-115.370;2023-02-15T11:27:20;15.43;34.50
74537;SHT31;63013;51.104;-115.370;2023-02-15T11:29:53;15.42;34.50
74537;SHT31;63013;51.104;-115.370;2023-02-15T11:32:40;15.41;34.50
74537;SHT31;63013;51.104;-115.370;2023-02-15T11:38:24;15.39;34.49
74537;SHT31;63013;51.104;-115.370;2023-02-15T11:41:03;15.39;34.49
74537;SHT31;63013;51.104;-115.370;2023-02-15T11:46:07;15.36;34.49
74537;SHT31;63013;51.104;-115.370;2023-02-15T11:48:38;15.35;34.42
74537;SHT31;63013;51.104;-115.370;2023-02-15T11:51:05;15.34;34.45
74537;SHT31;63013;51.104;-115.370;2023-02-15T11:53:39;15.35;34.42
74537;SHT31;63013;51.104;-115.370;2023-02-15T11:56:15;15.36;34.43
74537;SHT31;63013;51.104;-115.370;2023-02-15T11:58:56;15.38;34.41
74537;SHT31;63013;51.104;-115.370;2023-02-15T12:01:41;15.41;34.41
74537;SHT31;63013;51.104;-115.370;2023-02-15T12:09:55;15.52;34.41
74537;SHT31;63013;51.104;-115.370;2023-02-15T12:12:42;15.56;34.44
74537;SHT31;63013;51.104;-115.370;2023-02-15T12:15:10;15.59;34.43
74537;SHT31;63013;51.104;-115.370;2023-02-15T12:17:40;15.60;34.44
74537;SHT31;63013;51.104;-115.370;2023-02-15T12:25:50;15.60;34.44
74537;SHT31;63013;51.104;-115.370;2023-02-15T12:31:03;15.59;34.49
74537;SHT31;63013;51.104;-115.370;2023-02-15T12:33:45;15.57;34.49
74537;SHT31;63013;51.104;-115.370;2023-02-15T12:36:15;15.56;34.50
74537;SHT31;63013;51.104;-115.370;2023-02-15T12:41:45;15.54;34.51
74537;SHT31;63013;51.104;-115.370;2023-02-15T12:44:52;15.53;34.50
74537;SHT31;63013;51.104;-115.370;2023-02-15T12:48:16;15.51;34.51
74537;SHT31;63013;51.104;-115.370;2023-02-15T12:50:44;15.50;34.54
74537;SHT31;63013;51.104;-115.370;2023-02-15T12:53:20;15.50;34.54
74537;SHT31;63013;51.104;-115.370;2023-02-15T12:58:32;15.48;34.51
74537;SHT31;63013;51.104;-115.370;2023-02-15T13:01:19;15.46;34.53
74537;SHT31;63013;51.104;-115.370;2023-02-15T13:03:58;15.45;34.53
74537;SHT31;63013;51.104;-115.370;2023-02-15T13:06:34;15.43;34.57
74537;SHT31;63013;51.104;-115.370;2023-02-15T13:11:44;15.40;34.52
74537;SHT31;63013;51.104;-115.370;2023-02-15T13:14:19;15.39;34.53
74537;SHT31;63013;51.104;-115.370;2023-02-15T13:16:58;15.38;34.55
74537;SHT31;63013;51.104;-115.370;2023-02-15T13:19:31;15.36;34.56
74537;SHT31;63013;51.104;-115.370;2023-02-15T13:22:05;15.35;34.52
74537;SHT31;63013;51.104;-115.370;2023-02-15T13:24:40;15.33;34.52
74537;SHT31;63013;51.104;-115.370;2023-02-15T13:27:23;15.31;34.51
74537;SHT31;63013;51.104;-115.370;2023-02-15T13:30:03;15.31;34.50
74537;SHT31;63013;51.104;-115.370;2023-02-15T13:32:48;15.31;34.49
74537;SHT31;63013;51.104;-115.370;2023-02-15T13:35:20;15.32;34.50
74537;SHT31;63013;51.104;-115.370;2023-02-15T13:38:12;15.35;34.50
74537;SHT31;63013;51.104;-115.370;2023-02-15T13:41:00;15.37;34.48
74537;SHT31;63013;51.104;-115.370;2023-02-15T13:49:16;15.47;34.47
74537;SHT31;63013;51.104;-115.370;2023-02-15T13:52:20;15.53;34.46
74537;SHT31;63013;51.104;-115.370;2023-02-15T14:04:17;15.58;34.50
74537;SHT31;63013;51.104;-115.370;2023-02-15T14:13:26;15.58;34.50
74537;SHT31;63013;51.104;-115.370;2023-02-15T14:15:58;15.56;34.50
74537;SHT31;63013;51.104;-115.370;2023-02-15T14:30:20;15.49;34.55
74537;SHT31;63013;51.104;-115.370;2023-02-15T14:32:55;15.49;34.53
74537;SHT31;63013;51.104;-115.370;2023-02-15T14:35:47;15.46;34.55
74537;SHT31;63013;51.104;-115.370;2023-02-15T14:47:09;15.40;34.57
74537;SHT31;63013;51.104;-115.370;2023-02-15T14:49:48;15.39;34.55
74537;SHT31;63013;51.104;-115.370;2023-02-15T14:52:15;15.37;34.52
74537;SHT31;63013;51.104;-115.370;2023-02-15T15:05:32;15.33;34.50
74537;SHT31;63013;51.104;-115.370;2023-02-15T15:08:21;15.31;34.48
74537;SHT31;63013;51.104;-115.370;2023-02-15T15:13:55;15.33;34.49
74537;SHT31;63013;51.104;-115.370;2023-02-15T15:16:27;15.36;34.48
74537;SHT31;63013;51.104;-115.370;2023-02-15T15:19:04;15.39;34.47
74537;SHT31;63013;51.104;-115.370;2023-02-15T15:38:46;15.60;34.50
74537;SHT31;63013;51.104;-115.370;2023-02-15T15:42:32;15.59;34.48
74537;SHT31;63013;51.104;-115.370;2023-02-15T15:51:20;15.57;34.50
74537;SHT31;63013;51.104;-115.370;2023-02-15T15:53:59;15.55;34.50
74537;SHT31;63013;51.104;-115.370;2023-02-15T15:56:36;15.54;34.49
74537;SHT31;63013;51.104;-115.370;2023-02-15T15:59:07;15.54;34.50
74537;SHT31;63013;51.104;-115.370;2023-02-15T16:01:51;15.53;34.49
74537;SHT31;63013;51.104;-115.370;2023-02-15T16:04:36;15.53;34.50
74537;SHT31;63013;51.104;-115.370;2023-02-15T16:10:44;15.51;34.49
74537;SHT31;63013;51.104;-115.370;2023-02-15T16:12:52;15.50;34.49
74537;SHT31;63013;51.104;-115.370;2023-02-15T16:16:06;15.48;34.46
74537;SHT31;63013;51.104;-115.370;2023-02-15T16:18:18;15.47;34.49
74537;SHT31;63013;51.104;-115.370;2023-02-15T16:21:02;15.47;34.49
74537;SHT31;63013;51.104;-115.370;2023-02-15T16:23:38;15.47;34.45
74537;SHT31;63013;51.104;-115.370;2023-02-15T16:26:44;15.45;34.47
74537;SHT31;63013;51.104;-115.370;2023-02-15T16:29:34;15.44;34.46
74537;SHT31;63013;51.104;-115.370;2023-02-15T16:32:05;15.43;34.43
74537;SHT31;63013;51.104;-115.370;2023-02-15T16:35:12;15.43;34.43
74537;SHT31;63013;51.104;-115.370;2023-02-15T16:37:46;15.41;34.40
74537;SHT31;63013;51.104;-115.370;2023-02-15T16:42:53;15.39;34.41
74537;SHT31;63013;51.104;-115.370;2023-02-15T16:45:27;15.38;34.41
74537;SHT31;63013;51.104;-115.370;2023-02-15T16:47:58;15.37;34.43
74537;SHT31;63013;51.104;-115.370;2023-02-15T16:50:33;15.36;34.43
74537;SHT31;63013;51.104;-115.370;2023-02-15T16:53:04;15.36;34.43
74537;SHT31;63013;51.104;-115.370;2023-02-15T16:55:40;15.35;34.43
74537;SHT31;63013;51.104;-115.370;2023-02-15T16:58:13;15.34;34.41
74537;SHT31;63013;51.104;-115.370;2023-02-15T17:00:43;15.33;34.42
74537;SHT31;63013;51.104;-115.370;2023-02-15T17:05:47;15.32;34.40
74537;SHT31;63013;51.104;-115.370;2023-02-15T17:16:43;15.40;34.40
74537;SHT31;63013;51.104;-115.370;2023-02-15T17:19:16;15.42;34.39
74537;SHT31;63013;51.104;-115.370;2023-02-15T17:22:00;15.47;34.37
74537;SHT31;63013;51.104;-115.370;2023-02-15T17:24:33;15.49;34.33
74537;SHT31;63013;51.104;-115.370;2023-02-15T17:27:14;15.52;34.33
74537;SHT31;63013;51.104;-115.370;2023-02-15T17:29:48;15.53;34.33
74537;SHT31;63013;51.104;-115.370;2023-02-15T17:32:23;15.55;34.32
74537;SHT31;63013;51.104;-115.370;2023-02-15T17:37:31;15.55;34.33
74537;SHT31;63013;51.104;-115.370;2023-02-15T17:40:25;15.54;34.34
74537;SHT31;63013;51.104;-115.370;2023-02-15T17:43:00;15.54;34.34
74537;SHT31;63013;51.104;-115.370;2023-02-15T17:45:35;15.54;34.33
74537;SHT31;63013;51.104;-115.370;2023-02-15T17:48:36;15.53;34.33
74537;SHT31;63013;51.104;-115.370;2023-02-15T17:51:09;15.54;34.32
74537;SHT31;63013;51.104;-115.370;2023-02-15T17:53:40;15.53;34.35
74537;SHT31;63013;51.104;-115.370;2023-02-15T17:56:34;15.51;34.30
74537;SHT31;63013;51.104;-115.370;2023-02-15T17:59:06;15.52;34.32
74537;SHT31;63013;51.104;-115.370;2023-02-15T18:01:36;15.52;34.31
74537;SHT31;63013;51.104;-115.370;2023-02-15T18:04:31;15.51;34.36
74537;SHT31;63013;51.104;-115.370;2023-02-15T18:07:19;15.50;34.31
74537;SHT31;63013;51.104;-115.370;2023-02-15T18:10:23;15.51;34.31
74537;SHT31;63013;51.104;-115.370;2023-02-15T18:13:08;15.49;34.31
74537;SHT31;63013;51.104;-115.370;2023-02-15T18:15:35;15.49;34.31
74537;SHT31;63013;51.104;-115.370;2023-02-15T18:18:03;15.48;34.32
74537;SHT31;63013;51.104;-115.370;2023-02-15T18:20:32;15.48;34.30
74537;SHT31;63013;51.104;-115.370;2023-02-15T18:23:01;15.47;34.30
74537;SHT31;63013;51.104;-115.370;2023-02-15T18:25:29;15.46;34.30
74537;SHT31;63013;51.104;-115.370;2023-02-15T18:27:56;15.46;34.30
74537;SHT31;63013;51.104;-115.370;2023-02-15T18:30:23;15.45;34.30
74537;SHT31;63013;51.104;-115.370;2023-02-15T18:32:51;15.45;34.28
74537;SHT31;63013;51.104;-115.370;2023-02-15T18:35:23;15.45;34.29
74537;SHT31;63013;51.104;-115.370;2023-02-15T18:37:55;15.46;34.28
74537;SHT31;63013;51.104;-115.370;2023-02-15T18:40:27;15.44;34.23
74537;SHT31;63013;51.104;-115.370;2023-02-15T18:42:56;15.43;34.22
74537;SHT31;63013;51.104;-115.370;2023-02-15T18:45:24;15.43;34.21
74537;SHT31;63013;51.104;-115.370;2023-02-15T18:47:57;15.43;34.21
74537;SHT31;63013;51.104;-115.370;2023-02-15T18:50:27;15.43;34.21
74537;SHT31;63013;51.104;-115.370;2023-02-15T18:52:58;15.42;34.20
74537;SHT31;63013;51.104;-115.370;2023-02-15T18:55:29;15.42;34.20